Time;durP1;ratioP1;P1;durP2;ratioP2;P2;SDS_P1;SDS_P2;PMS_P1;PMS_P2;Temp;Humidity;BMP_temperature;BMP_pressure;BME280_temperature;BME280_humidity;BME280_pressure;Samples;Min_cycle;Max_cycle;Signal;HPM_P1;HPM_P2
2023/08/26 00:01:41;;;;;;;11.50;9.07;;;18.10;99.90;;;;;;4865122;29;20247;-83
2023/08/26 00:04:06;;;;;;;10.47;9.40;;;18.10;99.90;;;;;;4865661;29;20223;-85
2023/08/26 00:06:34;;;;;;;12.23;10.70;;;18.10;99.90;;;;;;4864583;29;20195;-85
2023/08/26 00:08:59;;;;;;;13.73;10.00;;;18.00;99.90;;;;;;4863835;29;20236;-85
2023/08/26 00:11:25;;;;;;;13.57;11.13;;;17.90;99.90;;;;;;4865600;29;20771;-85
2023/08/26 00:13:51;;;;;;;14.23;11.07;;;17.90;99.90;;;;;;4864944;29;20259;-86
2023/08/26 00:16:17;;;;;;;10.90;9.80;;;17.80;99.90;;;;;;4848658;29;20219;-85
2023/08/26 00:18:43;;;;;;;18.10;11.33;;;17.80;99.90;;;;;;4864663;29;20192;-85
2023/08/26 00:21:10;;;;;;;14.10;10.47;;;17.70;99.90;;;;;;4864510;29;20981;-84
2023/08/26 00:23:36;;;;;;;12.50;10.53;;;17.70;99.90;;;;;;4864518;29;20192;-84
2023/08/26 00:26:02;;;;;;;17.10;11.97;;;17.70;99.90;;;;;;4864321;29;20477;-84
2023/08/26 00:28:28;;;;;;;13.93;9.97;;;17.60;99.90;;;;;;4864776;29;20187;-84
2023/08/26 00:31:00;;;;;;;10.97;9.30;;;17.60;99.90;;;;;;4864106;29;20417;-85
2023/08/26 00:33:26;;;;;;;15.90;10.40;;;17.60;99.90;;;;;;4864253;29;20190;-84
2023/08/26 00:35:52;;;;;;;10.17;8.77;;;17.60;99.90;;;;;;4864206;29;20469;-84
2023/08/26 00:38:18;;;;;;;11.90;8.90;;;17.60;99.90;;;;;;4864063;29;20429;-84
2023/08/26 00:40:43;;;;;;;14.60;9.27;;;17.50;99.90;;;;;;4864242;29;20203;-84
2023/08/26 00:43:09;;;;;;;7.17;6.10;;;17.60;99.90;;;;;;4864081;29;20188;-85
2023/08/26 00:45:43;;;;;;;9.23;7.70;;;17.50;99.90;;;;;;4864072;29;20574;-84
2023/08/26 00:48:11;;;;;;;7.83;7.10;;;17.50;99.90;;;;;;4864278;29;20537;-85
2023/08/26 00:50:42;;;;;;;10.67;7.90;;;17.50;99.90;;;;;;4864346;29;20417;-85
2023/08/26 00:53:11;;;;;;;10.93;7.50;;;17.40;99.90;;;;;;4863750;29;20749;-85
2023/08/26 00:55:37;;;;;;;8.40;7.20;;;17.50;99.90;;;;;;4864725;29;20425;-85
2023/08/26 00:58:05;;;;;;;10.17;7.83;;;17.40;99.90;;;;;;4864651;29;20460;-85
2023/08/26 01:00:32;;;;;;;16.93;8.57;;;17.40;99.90;;;;;;4864330;29;20425;-84
2023/08/26 01:02:58;;;;;;;11.23;7.70;;;17.30;99.90;;;;;;4863416;29;20787;-84
2023/08/26 01:05:24;;;;;;;11.33;8.40;;;17.20;99.90;;;;;;4863378;29;20479;-85
2023/08/26 01:07:50;;;;;;;9.77;7.73;;;17.20;99.90;;;;;;4862563;29;20870;-84
2023/08/26 01:10:16;;;;;;;12.87;8.37;;;17.10;99.90;;;;;;4864125;29;20249;-84
2023/08/26 01:12:58;;;;;;;11.53;7.50;;;17.10;99.90;;;;;;4863259;29;20475;-84
2023/08/26 01:15:27;;;;;;;8.60;7.20;;;16.90;99.90;;;;;;4863893;29;20401;-85
2023/08/26 01:17:53;;;;;;;10.53;8.00;;;16.70;99.90;;;;;;4863399;29;20417;-85
2023/08/26 01:20:20;;;;;;;12.93;8.23;;;16.70;99.90;;;;;;4863598;29;20460;-84
2023/08/26 01:22:48;;;;;;;15.73;9.30;;;16.60;99.90;;;;;;4862331;29;20453;-83
2023/08/26 01:25:16;;;;;;;12.13;7.90;;;16.60;99.90;;;;;;4862797;29;20468;-84
2023/08/26 01:27:41;;;;;;;11.90;8.20;;;16.40;99.90;;;;;;4863194;29;20433;-84
2023/08/26 01:30:08;;;;;;;9.27;7.73;;;16.40;99.90;;;;;;4863199;29;20463;-84
2023/08/26 01:32:52;;;;;;;7.97;7.03;;;16.30;99.90;;;;;;4863131;29;20200;-83
2023/08/26 01:35:28;;;;;;;12.20;7.63;;;16.20;99.90;;;;;;4863200;29;20425;-84
2023/08/26 01:37:54;;;;;;;10.77;8.53;;;16.10;99.90;;;;;;4863208;29;20409;-86
2023/08/26 01:40:22;;;;;;;13.20;8.63;;;16.00;99.90;;;;;;4861902;29;20488;-85
2023/08/26 01:42:48;;;;;;;11.50;7.83;;;16.00;99.90;;;;;;4863234;29;20456;-86
2023/08/26 01:45:14;;;;;;;13.13;7.83;;;16.00;99.90;;;;;;4862839;29;20472;-85
2023/08/26 01:47:40;;;;;;;10.30;6.53;;;15.90;99.90;;;;;;4863211;29;20924;-84
2023/08/26 01:50:05;;;;;;;10.63;6.80;;;15.80;99.90;;;;;;4862720;29;20208;-84
2023/08/26 01:52:31;;;;;;;10.37;5.70;;;15.70;99.90;;;;;;4863135;29;20286;-84
2023/08/26 01:54:56;;;;;;;9.17;5.87;;;15.70;99.90;;;;;;4862922;29;20776;-84
2023/08/26 01:57:22;;;;;;;10.97;5.47;;;15.60;99.90;;;;;;4862713;29;20196;-84
2023/08/26 01:59:48;;;;;;;7.97;5.57;;;15.50;99.90;;;;;;4862919;29;20192;-84
2023/08/26 02:02:13;;;;;;;8.03;4.50;;;15.50;99.90;;;;;;4863036;29;20551;-84
2023/08/26 02:04:39;;;;;;;8.90;4.73;;;15.40;99.90;;;;;;4862655;29;20216;-86
2023/08/26 02:07:04;;;;;;;11.03;5.27;;;15.40;99.90;;;;;;4862859;29;20184;-84
2023/08/26 02:09:30;;;;;;;9.20;4.60;;;15.40;99.90;;;;;;4862935;29;20240;-84
2023/08/26 02:11:56;;;;;;;8.50;5.67;;;15.30;99.90;;;;;;4862370;29;20188;-84
2023/08/26 02:14:21;;;;;;;9.90;5.13;;;15.20;99.90;;;;;;4863038;29;20191;-84
2023/08/26 02:16:47;;;;;;;7.23;4.20;;;15.20;99.90;;;;;;4861555;29;20200;-84
2023/08/26 02:19:12;;;;;;;7.30;4.40;;;15.10;99.90;;;;;;4862616;29;20215;-85
2023/08/26 02:21:38;;;;;;;7.90;4.83;;;15.00;99.90;;;;;;4863583;29;20196;-84
2023/08/26 02:24:04;;;;;;;8.80;3.93;;;15.00;99.90;;;;;;4863071;29;20212;-85
2023/08/26 02:26:29;;;;;;;10.77;4.83;;;14.90;99.90;;;;;;4862742;29;20316;-84
2023/08/26 02:28:55;;;;;;;9.17;4.80;;;14.90;99.90;;;;;;4862988;29;20192;-85
2023/08/26 02:31:21;;;;;;;5.57;4.17;;;14.90;99.90;;;;;;4862470;29;20653;-85
2023/08/26 02:33:47;;;;;;;4.27;3.67;;;14.90;99.90;;;;;;4862438;29;20586;-84
2023/08/26 02:36:12;;;;;;;6.40;3.80;;;14.80;99.90;;;;;;4862004;29;20425;-85
2023/08/26 02:38:38;;;;;;;4.77;3.10;;;14.80;99.90;;;;;;4862394;29;20228;-85
2023/08/26 02:41:04;;;;;;;6.73;3.63;;;14.80;99.90;;;;;;4861875;29;20566;-85
2023/08/26 02:43:29;;;;;;;3.90;3.50;;;14.70;99.90;;;;;;4862103;29;20902;-85
2023/08/26 02:45:56;;;;;;;5.13;3.37;;;14.60;99.90;;;;;;4864013;29;20247;-85
2023/08/26 02:48:22;;;;;;;5.40;3.37;;;14.60;99.90;;;;;;4876964;29;20180;-85
2023/08/26 02:50:59;;;;;;;7.53;3.10;;;14.50;99.90;;;;;;4872260;29;20446;-84
2023/08/26 02:53:25;;;;;;;7.20;3.13;;;14.50;99.90;;;;;;4862391;29;20408;-85
2023/08/26 02:55:51;;;;;;;7.23;3.63;;;14.50;99.90;;;;;;4862134;29;20512;-85
2023/08/26 02:58:18;;;;;;;6.50;2.80;;;14.30;99.90;;;;;;4862255;29;20532;-84
2023/08/26 03:00:44;;;;;;;5.27;2.73;;;14.20;99.90;;;;;;4862064;29;20425;-83
2023/08/26 03:03:09;;;;;;;3.43;2.57;;;14.10;99.90;;;;;;4862060;29;20481;-85
2023/08/26 03:05:35;;;;;;;6.10;2.60;;;14.00;99.90;;;;;;4862686;29;20532;-85
2023/08/26 03:08:01;;;;;;;4.87;2.00;;;13.90;99.90;;;;;;4863033;29;20240;-84
2023/08/26 03:10:26;;;;;;;8.43;3.40;;;13.80;99.90;;;;;;4862663;29;20621;-84
2023/08/26 03:12:54;;;;;;;9.20;2.73;;;13.80;99.90;;;;;;4862494;29;20192;-84
2023/08/26 03:15:19;;;;;;;7.80;2.70;;;13.70;99.90;;;;;;4862411;29;20203;-85
2023/08/26 03:17:45;;;;;;;3.43;3.13;;;13.60;99.90;;;;;;4862366;29;20425;-85
2023/08/26 03:20:11;;;;;;;5.63;2.70;;;13.60;99.90;;;;;;4861927;29;20195;-85
2023/08/26 03:22:37;;;;;;;4.80;2.53;;;13.60;99.90;;;;;;4862367;29;20226;-85
2023/08/26 03:25:02;;;;;;;14.03;4.00;;;13.60;99.90;;;;;;4862198;29;20465;-85
2023/08/26 03:27:29;;;;;;;3.40;2.40;;;13.60;99.90;;;;;;4862409;29;20199;-85
2023/08/26 03:29:54;;;;;;;4.20;2.60;;;13.50;99.90;;;;;;4861162;29;20336;-86
2023/08/26 03:32:20;;;;;;;8.87;2.87;;;13.50;99.90;;;;;;4865157;29;20864;-84
2023/08/26 03:34:46;;;;;;;4.20;2.97;;;13.40;99.90;;;;;;4866107;29;20203;-85
2023/08/26 03:37:11;;;;;;;8.83;2.57;;;13.30;99.90;;;;;;4865257;29;20417;-85
2023/08/26 03:39:37;;;;;;;3.57;2.60;;;13.30;99.90;;;;;;4864912;29;20231;-85
2023/08/26 03:42:02;;;;;;;6.67;2.73;;;13.30;99.90;;;;;;4865622;29;20183;-85
2023/08/26 03:44:28;;;;;;;2.73;2.10;;;13.30;99.90;;;;;;4865578;29;20208;-85
2023/08/26 03:46:54;;;;;;;4.90;2.73;;;13.20;99.90;;;;;;4864363;29;20255;-85
2023/08/26 03:49:19;;;;;;;5.80;2.80;;;13.10;99.90;;;;;;4865146;29;20184;-84
2023/08/26 03:51:45;;;;;;;5.23;2.43;;;13.10;99.90;;;;;;4865494;29;20180;-85
2023/08/26 03:54:11;;;;;;;4.60;3.00;;;13.00;99.90;;;;;;4864936;29;20196;-85
2023/08/26 03:56:37;;;;;;;4.60;2.67;;;13.00;99.90;;;;;;4864202;29;20193;-85
2023/08/26 03:59:02;;;;;;;5.40;2.93;;;12.90;99.90;;;;;;4865366;29;20428;-85
2023/08/26 04:01:30;;;;;;;4.27;2.33;;;12.90;99.90;;;;;;4865280;29;20192;-84
2023/08/26 04:03:57;;;;;;;6.20;2.57;;;12.80;99.90;;;;;;4865003;29;20239;-85
2023/08/26 04:06:22;;;;;;;4.10;2.33;;;12.80;99.90;;;;;;4865037;29;20813;-85
2023/08/26 04:08:48;;;;;;;3.33;2.07;;;12.70;99.90;;;;;;4864658;29;20538;-85
2023/08/26 04:11:16;;;;;;;3.80;2.10;;;12.70;99.90;;;;;;4864526;29;20193;-85
2023/08/26 04:13:42;;;;;;;3.53;3.03;;;12.70;99.90;;;;;;4864951;29;20271;-85
2023/08/26 04:16:08;;;;;;;3.83;2.37;;;12.70;99.90;;;;;;4864620;29;20444;-85
2023/08/26 04:18:33;;;;;;;4.53;2.67;;;12.70;99.90;;;;;;4865061;29;20539;-85
2023/08/26 04:20:59;;;;;;;2.77;2.50;;;12.60;99.90;;;;;;4864679;29;20191;-85
2023/08/26 04:23:25;;;;;;;5.13;2.57;;;12.60;99.90;;;;;;4864535;29;20212;-85
2023/08/26 04:25:54;;;;;;;6.70;2.37;;;12.50;99.90;;;;;;4864353;29;20216;-85
2023/08/26 04:28:19;;;;;;;6.97;2.73;;;12.50;99.90;;;;;;4864427;29;20216;-84
2023/08/26 04:30:45;;;;;;;5.47;2.40;;;12.50;99.90;;;;;;4864031;29;20449;-85
2023/08/26 04:33:11;;;;;;;2.40;1.90;;;12.40;99.90;;;;;;4868348;29;20259;-85
2023/08/26 04:35:36;;;;;;;2.43;2.23;;;12.40;99.90;;;;;;4864697;29;20480;-85
2023/08/26 04:38:03;;;;;;;5.67;2.90;;;12.30;99.90;;;;;;4864567;29;20536;-85
2023/08/26 04:40:28;;;;;;;4.40;2.58;;;12.30;99.90;;;;;;4864092;29;20204;-85
2023/08/26 04:42:55;;;;;;;5.07;2.27;;;12.30;99.90;;;;;;4863190;29;20189;-85
2023/08/26 04:45:21;;;;;;;3.60;2.30;;;12.30;99.90;;;;;;4864021;29;20601;-85
2023/08/26 04:47:48;;;;;;;9.27;2.23;;;12.30;99.90;;;;;;4864394;29;20421;-85
2023/08/26 04:50:14;;;;;;;2.57;2.00;;;12.30;99.90;;;;;;4863789;29;20512;-85
2023/08/26 04:52:40;;;;;;;7.80;2.27;;;12.30;99.90;;;;;;4864701;29;20463;-85
2023/08/26 04:55:07;;;;;;;4.50;2.25;;;12.30;99.90;;;;;;4864548;29;20431;-85
2023/08/26 04:57:34;;;;;;;5.97;2.70;;;12.30;99.90;;;;;;4864489;29;20214;-85
2023/08/26 05:00:00;;;;;;;4.65;2.17;;;12.40;99.90;;;;;;4864000;29;20425;-86
2023/08/26 05:02:25;;;;;;;2.30;2.10;;;12.40;99.90;;;;;;4865025;29;20251;-88
2023/08/26 05:04:53;;;;;;;4.17;1.97;;;12.40;99.90;;;;;;4864457;29;20481;-88
2023/08/26 05:07:19;;;;;;;3.87;1.40;;;12.40;99.90;;;;;;4864240;29;20215;-86
2023/08/26 05:09:44;;;;;;;6.87;1.80;;;12.40;99.90;;;;;;4864245;29;20831;-85
2023/08/26 05:12:10;;;;;;;2.50;1.53;;;12.60;99.90;;;;;;4864839;29;20528;-85
2023/08/26 05:14:36;;;;;;;4.53;2.60;;;12.60;99.90;;;;;;4865668;29;20203;-86
2023/08/26 05:17:01;;;;;;;4.60;1.70;;;12.70;99.90;;;;;;4865510;29;20635;-86
2023/08/26 05:19:27;;;;;;;2.10;1.17;;;12.70;99.90;;;;;;4864044;29;20184;-85
2023/08/26 05:21:52;;;;;;;7.30;2.10;;;12.70;99.90;;;;;;4864738;29;20265;-85
2023/08/26 05:24:18;;;;;;;2.87;1.67;;;12.90;99.90;;;;;;4863667;29;20216;-84
2023/08/26 05:26:43;;;;;;;4.00;1.57;;;13.00;99.90;;;;;;4864243;29;20681;-85
2023/08/26 05:29:09;;;;;;;2.03;1.43;;;13.20;99.90;;;;;;4862886;29;20552;-85
2023/08/26 05:31:35;;;;;;;2.13;1.30;;;13.20;99.90;;;;;;4864528;29;20187;-85
2023/08/26 05:34:01;;;;;;;6.40;1.70;;;13.30;99.90;;;;;;4864129;29;20240;-85
2023/08/26 05:36:26;;;;;;;2.83;1.20;;;13.50;99.90;;;;;;4863039;29;20423;-85
2023/08/26 05:38:53;;;;;;;2.10;1.40;;;13.60;99.90;;;;;;4863903;29;20181;-85
2023/08/26 05:41:18;;;;;;;1.43;1.33;;;13.70;99.90;;;;;;4862291;29;20218;-86
2023/08/26 05:43:44;;;;;;;2.03;1.30;;;13.70;99.90;;;;;;4863439;29;20883;-89
2023/08/26 05:46:09;;;;;;;3.83;1.50;;;13.80;99.90;;;;;;4862958;29;20185;-89
2023/08/26 05:48:35;;;;;;;2.90;1.27;;;13.70;99.90;;;;;;4862983;29;20196;-89
2023/08/26 05:51:01;;;;;;;3.60;1.33;;;13.70;99.90;;;;;;4862088;29;20184;-89
2023/08/26 05:53:28;;;;;;;2.07;1.00;;;13.80;99.90;;;;;;4863060;29;20240;-89
2023/08/26 05:55:53;;;;;;;2.70;1.67;;;13.80;99.90;;;;;;4863354;29;20640;-89
2023/08/26 05:58:19;;;;;;;5.10;1.90;;;13.90;99.90;;;;;;4863849;29;20429;-89
2023/08/26 06:00:45;;;;;;;2.50;1.17;;;14.00;99.90;;;;;;4867004;29;20275;-89
2023/08/26 06:03:10;;;;;;;1.97;1.53;;;14.00;99.90;;;;;;4867312;29;20198;-89
2023/08/26 06:05:36;;;;;;;8.43;1.70;;;14.00;99.90;;;;;;4864607;29;20227;-89
2023/08/26 06:08:02;;;;;;;3.90;1.40;;;14.20;99.90;;;;;;4863699;29;20239;-89
2023/08/26 06:10:27;;;;;;;2.77;1.53;;;14.20;99.90;;;;;;4863699;29;20660;-88
2023/08/26 06:12:53;;;;;;;2.77;1.30;;;14.30;99.90;;;;;;4863376;29;20198;-89
2023/08/26 06:15:19;;;;;;;1.40;1.27;;;14.30;99.90;;;;;;4863017;29;20544;-89
2023/08/26 06:17:44;;;;;;;6.13;1.53;;;14.40;99.90;;;;;;4862986;29;20195;-89
2023/08/26 06:20:10;;;;;;;4.30;1.50;;;14.50;99.90;;;;;;4863218;29;20240;-89
2023/08/26 06:22:36;;;;;;;2.67;1.50;;;14.50;99.90;;;;;;4861768;29;20603;-89
2023/08/26 06:25:02;;;;;;;3.10;1.40;;;14.50;99.90;;;;;;4862210;29;20461;-89
2023/08/26 06:27:27;;;;;;;2.27;1.30;;;14.50;99.90;;;;;;4862849;29;20214;-89
2023/08/26 06:29:54;;;;;;;1.70;1.10;;;14.60;99.90;;;;;;4874290;29;20191;-90
2023/08/26 06:32:20;;;;;;;5.27;1.20;;;14.70;99.90;;;;;;4864653;29;20188;-89
2023/08/26 06:34:46;;;;;;;2.90;1.50;;;14.60;99.90;;;;;;4865031;29;20512;-89
2023/08/26 06:37:12;;;;;;;4.63;1.40;;;14.70;99.90;;;;;;4864352;29;20834;-88
2023/08/26 06:39:37;;;;;;;4.20;1.37;;;14.80;99.90;;;;;;4863841;29;20188;-89
2023/08/26 06:42:03;;;;;;;2.63;1.40;;;14.80;99.90;;;;;;4864106;29;20466;-89
2023/08/26 06:44:29;;;;;;;2.30;1.43;;;14.80;99.90;;;;;;4864004;29;20226;-90
2023/08/26 06:46:54;;;;;;;4.20;1.40;;;14.90;99.90;;;;;;4864434;29;20625;-93
2023/08/26 06:49:20;;;;;;;3.73;1.83;;;14.90;99.90;;;;;;4864292;29;20617;-91
2023/08/26 06:51:45;;;;;;;1.63;1.07;;;15.10;99.90;;;;;;4864127;29;20184;-94
2023/08/26 06:54:11;;;;;;;6.27;1.40;;;15.00;99.90;;;;;;4864859;29;20195;-92
2023/08/26 06:56:37;;;;;;;6.53;1.97;;;15.10;99.90;;;;;;4861615;29;20637;-93
2023/08/26 06:59:02;;;;;;;1.17;0.97;;;15.30;99.90;;;;;;4862280;29;20616;-93
2023/08/26 07:01:28;;;;;;;2.37;1.00;;;15.40;99.90;;;;;;4862388;29;20722;-93
2023/08/26 07:04:06;;;;;;;1.53;1.23;;;15.30;99.90;;;;;;4864369;29;20187;-94
2023/08/26 07:06:31;;;;;;;3.20;1.57;;;15.40;99.90;;;;;;4865910;29;20433;-93
2023/08/26 07:08:57;;;;;;;3.40;1.40;;;15.50;99.90;;;;;;4867500;29;20477;-94
2023/08/26 07:11:23;;;;;;;4.73;1.40;;;15.60;99.90;;;;;;4867899;29;20527;-93
2023/08/26 07:13:48;;;;;;;2.60;1.43;;;15.60;99.90;;;;;;4868579;29;20600;-93
2023/08/26 07:16:14;;;;;;;2.60;1.30;;;15.70;99.90;;;;;;4868508;29;20188;-92
2023/08/26 07:18:39;;;;;;;8.33;1.93;;;15.70;99.90;;;;;;4869749;29;20248;-92
2023/08/26 07:21:05;;;;;;;2.80;1.70;;;15.70;99.90;;;;;;4872863;29;20184;-93
2023/08/26 07:23:32;;;;;;;2.40;1.20;;;15.70;99.90;;;;;;4872871;29;20644;-93
2023/08/26 07:25:57;;;;;;;5.10;1.47;;;15.80;99.90;;;;;;4868842;29;20588;-92
2023/08/26 07:28:23;;;;;;;5.83;1.40;;;16.10;99.90;;;;;;4868446;29;20437;-93
2023/08/26 07:30:49;;;;;;;3.23;1.43;;;16.10;99.90;;;;;;4869543;29;20432;-92
2023/08/26 07:33:14;;;;;;;2.90;1.17;;;16.20;99.90;;;;;;4867991;29;20554;-93
2023/08/26 07:35:40;;;;;;;3.67;1.50;;;16.30;99.90;;;;;;4868058;29;20645;-93
2023/08/26 07:38:06;;;;;;;2.57;1.90;;;16.30;99.90;;;;;;4866803;29;20271;-93
2023/08/26 07:40:31;;;;;;;2.60;1.57;;;16.40;99.90;;;;;;4866839;29;20192;-91
2023/08/26 07:42:58;;;;;;;1.73;1.20;;;16.40;99.90;;;;;;4866308;29;20241;-93
2023/08/26 07:45:24;;;;;;;4.13;1.20;;;16.50;99.90;;;;;;4866044;29;20264;-93
2023/08/26 07:47:50;;;;;;;3.23;1.40;;;16.60;99.90;;;;;;4865864;29;20425;-92
2023/08/26 07:50:15;;;;;;;2.30;1.40;;;16.70;99.90;;;;;;4865870;29;20201;-90
2023/08/26 07:52:41;;;;;;;3.20;1.47;;;16.70;99.90;;;;;;4866372;29;20181;-91
2023/08/26 07:55:07;;;;;;;2.03;1.20;;;16.70;99.90;;;;;;4866185;29;20522;-91
2023/08/26 07:57:33;;;;;;;2.93;1.73;;;16.70;99.90;;;;;;4866413;29;20216;-91
2023/08/26 07:59:59;;;;;;;1.43;1.20;;;16.80;99.90;;;;;;4866164;29;20469;-91
2023/08/26 08:02:24;;;;;;;2.83;1.07;;;16.90;99.90;;;;;;4865649;29;20662;-92
2023/08/26 08:04:50;;;;;;;2.00;1.13;;;17.00;99.90;;;;;;4864359;29;20232;-90
2023/08/26 08:07:15;;;;;;;3.63;1.40;;;17.10;99.90;;;;;;4864111;29;20203;-88
2023/08/26 08:09:41;;;;;;;3.47;1.20;;;17.10;99.90;;;;;;4865329;29;20240;-88
2023/08/26 08:12:09;;;;;;;2.30;1.07;;;17.20;99.90;;;;;;4865262;29;20658;-90
2023/08/26 08:14:34;;;;;;;2.23;1.00;;;17.30;99.90;;;;;;4865440;29;20227;-90
2023/08/26 08:17:00;;;;;;;2.47;1.20;;;17.40;99.90;;;;;;4866953;29;20432;-90
2023/08/26 08:19:25;;;;;;;1.20;0.90;;;17.60;99.90;;;;;;4867933;29;20184;-89
2023/08/26 08:21:51;;;;;;;3.23;0.97;;;17.70;99.90;;;;;;4864899;29;20184;-89
2023/08/26 08:24:17;;;;;;;2.43;1.43;;;18.00;99.90;;;;;;4866438;29;20283;-89
2023/08/26 08:26:43;;;;;;;2.33;1.10;;;18.10;99.90;;;;;;4865615;29;20230;-90
2023/08/26 08:29:10;;;;;;;3.90;0.90;;;18.50;99.90;;;;;;4865457;29;20188;-89
2023/08/26 08:31:36;;;;;;;2.60;1.03;;;18.40;99.90;;;;;;4866080;29;20399;-93
2023/08/26 08:34:03;;;;;;;1.90;1.07;;;18.50;99.90;;;;;;4866218;29;20417;-91
2023/08/26 08:36:29;;;;;;;1.60;0.63;;;18.70;99.90;;;;;;4869026;29;20421;-93
2023/08/26 08:38:56;;;;;;;1.80;0.90;;;19.10;99.90;;;;;;4869321;29;20435;-92
2023/08/26 08:41:22;;;;;;;1.00;0.77;;;18.90;99.90;;;;;;4865504;29;20445;-91
2023/08/26 08:43:51;;;;;;;3.30;1.00;;;19.30;99.90;;;;;;4867300;29;20399;-92
2023/08/26 08:46:18;;;;;;;3.27;0.90;;;19.70;99.90;;;;;;4864335;29;20414;-89
2023/08/26 08:48:43;;;;;;;1.20;0.80;;;19.40;99.90;;;;;;4864018;29;20511;-90
2023/08/26 08:51:11;;;;;;;3.23;0.77;;;19.70;99.90;;;;;;4865383;29;20434;-92
2023/08/26 08:53:45;;;;;;;1.20;0.90;;;19.80;99.90;;;;;;4865053;29;20177;-91
2023/08/26 08:56:12;;;;;;;2.53;0.90;;;20.10;99.90;;;;;;4865254;29;20405;-91
2023/08/26 08:58:39;;;;;;;1.10;0.90;;;20.30;99.90;;;;;;4864982;29;20793;-92
2023/08/26 09:01:05;;;;;;;1.47;0.90;;;20.60;99.90;;;;;;4865168;29;20779;-92
2023/08/26 09:03:31;;;;;;;1.93;1.00;;;20.80;99.90;;;;;;4848315;29;20396;-93
2023/08/26 09:05:56;;;;;;;4.50;1.10;;;20.70;99.90;;;;;;4864921;29;20567;-90
2023/08/26 09:08:24;;;;;;;1.30;0.80;;;20.50;99.90;;;;;;4864982;29;20883;-93
2023/08/26 09:10:51;;;;;;;0.80;0.60;;;20.70;99.90;;;;;;4864667;29;20326;-94
2023/08/26 09:13:16;;;;;;;3.00;0.83;;;20.60;99.90;;;;;;4865097;29;20516;-93
2023/08/26 09:15:42;;;;;;;2.30;0.67;;;20.60;99.90;;;;;;4865026;29;20526;-91
2023/08/26 09:18:11;;;;;;;1.77;0.70;;;21.00;99.90;;;;;;4867013;29;20237;-92
2023/08/26 09:20:40;;;;;;;1.30;0.80;;;21.50;99.90;;;;;;4866020;29;20188;-93
2023/08/26 09:23:07;;;;;;;3.70;0.90;;;21.30;99.90;;;;;;4849489;29;20408;-93
2023/08/26 09:25:34;;;;;;;2.80;1.00;;;21.30;99.90;;;;;;4867126;29;20477;-92
2023/08/26 09:28:00;;;;;;;1.23;0.80;;;21.70;99.90;;;;;;4869311;29;20456;-93
2023/08/26 09:30:26;;;;;;;2.43;1.20;;;22.00;99.90;;;;;;4873085;29;20761;-88
2023/08/26 09:32:53;;;;;;;1.20;0.70;;;21.40;99.90;;;;;;4871575;29;20455;-91
2023/08/26 09:35:19;;;;;;;3.73;0.90;;;21.60;99.90;;;;;;4864092;29;20874;-91
2023/08/26 09:37:48;;;;;;;1.10;0.70;;;21.80;99.90;;;;;;4866601;29;20420;-85
2023/08/26 09:40:16;;;;;;;2.70;1.20;;;21.90;99.90;;;;;;4868169;29;20511;-93
2023/08/26 09:42:42;;;;;;;3.23;1.10;;;21.60;99.90;;;;;;4864579;29;20727;-90
2023/08/26 09:45:14;;;;;;;6.23;1.30;;;22.40;99.90;;;;;;4864689;29;20435;-92
2023/08/26 09:47:40;;;;;;;1.53;0.80;;;22.00;99.90;;;;;;4865602;29;20431;-91
2023/08/26 09:50:07;;;;;;;1.33;0.70;;;21.80;99.90;;;;;;4864553;29;20840;-91
2023/08/26 09:52:47;;;;;;;1.70;0.80;;;22.30;99.90;;;;;;4864069;29;20511;-91
2023/08/26 09:55:13;;;;;;;2.50;1.10;;;22.00;99.90;;;;;;4862909;29;20916;-89
2023/08/26 09:57:40;;;;;;;2.07;0.90;;;22.00;99.90;;;;;;4847195;29;20463;-91
2023/08/26 10:00:10;;;;;;;1.90;0.93;;;21.70;99.90;;;;;;4864396;29;20422;-90
2023/08/26 10:02:38;;;;;;;6.03;0.87;;;22.70;99.90;;;;;;4872482;29;20405;-88
2023/08/26 10:05:15;;;;;;;2.10;1.23;;;22.70;99.90;;;;;;4864652;29;20458;-91
2023/08/26 10:07:45;;;;;;;1.53;0.87;;;22.80;99.90;;;;;;4862703;29;20446;-92
2023/08/26 10:10:19;;;;;;;4.77;0.90;;;22.40;99.90;;;;;;4847379;29;20540;-91
2023/08/26 10:12:49;;;;;;;1.63;0.70;;;22.80;99.90;;;;;;4862324;29;20451;-89
2023/08/26 10:15:17;;;;;;;1.77;0.97;;;23.00;99.90;;;;;;4865192;29;20409;-91
2023/08/26 10:17:49;;;;;;;3.17;1.03;;;23.10;99.90;;;;;;4866371;29;20417;-90
2023/08/26 10:20:15;;;;;;;1.43;0.80;;;23.20;99.90;;;;;;4864722;29;20883;-89
2023/08/26 10:22:41;;;;;;;1.27;0.83;;;23.40;99.90;;;;;;4863414;29;20421;-91
2023/08/26 10:25:12;;;;;;;2.20;0.90;;;23.50;99.90;;;;;;4846493;29;20483;-86
2023/08/26 10:27:38;;;;;;;1.57;1.13;;;23.80;99.90;;;;;;4863054;29;20614;-91
2023/08/26 10:30:06;;;;;;;1.70;1.10;;;23.60;99.90;;;;;;4863533;29;20444;-91
2023/08/26 10:32:43;;;;;;;1.43;0.90;;;23.30;99.90;;;;;;4863771;29;20761;-92
2023/08/26 10:35:13;;;;;;;1.87;0.90;;;23.60;99.90;;;;;;4863393;29;20388;-91
2023/08/26 10:37:42;;;;;;;1.27;0.77;;;23.60;99.90;;;;;;4864486;29;20395;-91
2023/08/26 10:40:12;;;;;;;2.40;0.80;;;23.80;99.90;;;;;;4869687;29;20452;-90
2023/08/26 10:42:38;;;;;;;1.93;0.80;;;23.50;99.90;;;;;;4864686;29;20793;-91
2023/08/26 10:45:14;;;;;;;1.23;0.70;;;23.00;99.90;;;;;;4865624;29;20469;-92
2023/08/26 10:47:45;;;;;;;3.53;1.63;;;23.00;99.90;;;;;;4865191;29;21179;-91
2023/08/26 10:50:27;;;;;;;1.83;1.03;;;22.80;99.90;;;;;;4864661;29;20417;-92
2023/08/26 10:52:56;;;;;;;1.10;0.80;;;22.70;99.90;;;;;;4865414;29;20421;-93
2023/08/26 10:55:32;;;;;;;2.50;1.13;;;22.60;99.90;;;;;;4865069;29;20424;-92
2023/08/26 10:58:13;;;;;;;1.87;0.70;;;22.10;99.90;;;;;;4866459;29;20433;-94
2023/08/26 11:00:50;;;;;;;2.03;0.87;;;21.90;99.90;;;;;;4865999;29;20382;-93
2023/08/26 11:03:20;;;;;;;2.60;1.00;;;22.00;99.90;;;;;;4865055;29;20384;-92
2023/08/26 11:05:59;;;;;;;1.70;0.83;;;22.00;99.90;;;;;;4862355;29;20877;-91
2023/08/26 11:08:24;;;;;;;1.07;0.90;;;22.30;99.90;;;;;;4862690;29;20476;-92
2023/08/26 11:10:51;;;;;;;1.40;1.00;;;22.20;99.90;;;;;;4864714;29;20525;-93
2023/08/26 11:13:16;;;;;;;2.90;1.43;;;22.40;99.90;;;;;;4865045;29;20259;-91
2023/08/26 11:15:43;;;;;;;4.20;1.43;;;22.50;99.90;;;;;;4867753;29;20908;-91
2023/08/26 11:18:10;;;;;;;3.53;1.10;;;22.10;99.90;;;;;;4863529;29;20615;-92
2023/08/26 11:20:37;;;;;;;0.90;0.80;;;22.40;99.90;;;;;;4862778;29;20388;-91
2023/08/26 11:23:04;;;;;;;1.37;0.80;;;22.50;99.90;;;;;;4863374;29;20420;-92
2023/08/26 11:25:30;;;;;;;1.33;0.80;;;23.10;99.90;;;;;;4862705;29;20533;-91
2023/08/26 11:28:02;;;;;;;2.90;1.10;;;23.50;99.90;;;;;;4861784;29;20938;-94
2023/08/26 11:30:28;;;;;;;1.00;0.90;;;23.90;99.90;;;;;;4861411;29;20759;-91
2023/08/26 11:32:54;;;;;;;1.13;0.90;;;23.90;99.90;;;;;;4863042;29;20421;-89
2023/08/26 11:35:23;;;;;;;1.40;1.10;;;24.00;99.90;;;;;;4848270;29;20203;-95
2023/08/26 11:37:49;;;;;;;2.60;1.20;;;24.10;99.90;;;;;;4865898;29;20217;-94
2023/08/26 11:40:15;;;;;;;2.03;0.80;;;24.00;99.90;;;;;;4864393;29;20926;-95
2023/08/26 11:42:42;;;;;;;1.07;0.80;;;24.00;99.90;;;;;;4867893;29;20184;-94
2023/08/26 11:45:09;;;;;;;2.20;1.07;;;24.30;99.90;;;;;;4866228;29;20933;-93
2023/08/26 11:47:35;;;;;;;1.00;0.90;;;24.80;99.90;;;;;;4863155;29;20428;-91
2023/08/26 11:50:00;;;;;;;2.07;1.00;;;24.90;99.90;;;;;;4862541;29;20403;-95
2023/08/26 11:52:34;;;;;;;1.23;1.10;;;24.50;99.90;;;;;;4864089;29;20241;-93
2023/08/26 11:55:04;;;;;;;3.10;1.60;;;24.60;99.90;;;;;;4864970;29;20220;-92
2023/08/26 11:57:40;;;;;;;2.00;0.90;;;24.80;99.90;;;;;;4866432;29;20388;-94
2023/08/26 12:00:07;;;;;;;1.90;0.80;;;24.90;99.90;;;;;;4866641;29;20436;-93
2023/08/26 12:02:33;;;;;;;0.97;0.87;;;24.50;99.90;;;;;;4865981;29;20427;-92
2023/08/26 12:04:59;;;;;;;1.87;1.13;;;24.00;99.90;;;;;;4866097;29;20472;-91
2023/08/26 12:07:31;;;;;;;2.03;0.93;;;23.80;99.90;;;;;;4863940;29;20229;-91
2023/08/26 12:09:57;;;;;;;2.03;1.00;;;24.00;99.90;;;;;;4849120;29;20507;-91
2023/08/26 12:12:24;;;;;;;2.57;1.03;;;24.50;99.90;;;;;;4865186;29;20420;-94
2023/08/26 12:14:50;;;;;;;3.30;1.00;;;24.20;99.90;;;;;;4864824;29;20429;-90
2023/08/26 12:17:16;;;;;;;3.23;1.23;;;24.20;99.90;;;;;;4869581;29;20485;-95
2023/08/26 12:19:42;;;;;;;2.37;1.10;;;23.60;99.90;;;;;;4868041;29;20456;-88
2023/08/26 12:22:10;;;;;;;3.27;1.20;;;23.40;99.90;;;;;;4866163;29;20186;-92
2023/08/26 12:24:37;;;;;;;1.33;0.93;;;23.30;99.90;;;;;;4865467;29;20583;-90
2023/08/26 12:27:13;;;;;;;2.53;1.20;;;23.10;99.90;;;;;;4865305;29;20429;-92
2023/08/26 12:29:39;;;;;;;3.53;1.13;;;22.90;99.90;;;;;;4865990;29;20421;-89
2023/08/26 12:32:05;;;;;;;3.53;1.03;;;22.90;99.90;;;;;;4864952;29;20429;-91
2023/08/26 12:34:32;;;;;;;5.00;1.10;;;22.70;99.90;;;;;;4865149;29;20387;-92
2023/08/26 12:36:58;;;;;;;2.27;1.20;;;22.60;99.90;;;;;;4867180;29;20417;-91
2023/08/26 12:39:27;;;;;;;3.23;1.00;;;22.60;99.90;;;;;;4867151;29;20395;-91
2023/08/26 12:41:53;;;;;;;7.57;1.20;;;22.80;99.90;;;;;;4864401;29;20444;-92
2023/08/26 12:44:21;;;;;;;2.47;1.23;;;23.10;99.90;;;;;;4865244;29;20480;-92